British Robin — MGSH7 — position and weather

sailwx.info

Track history (hours):
 
Tides and Currents Weather Stations Pressure Air Temp Water Temp Dewpoint Dewpoint Depression Visibility Wind Speed Wind Dir Waves Ship Positions

British Robin

Last reported at 2014-Dec-21 01:31 UTC. Time now 2014-Dec-21 01:56 UTC.
Position N 51°15' E 004°22'.

Length 251.5 m; beam 43.9 m; draft 15 m.

Type: Tanker. MMSI: 232156000.

Date/timePositionNaut miles runAvg speedWind from/ knotsBaromVisibWave heightAir tempDewpointWater temp
2014-Dec-21 01:31N 51°15' E 004°22'0 0.0
2014-Dec-21 00:31N 51°15' E 004°22'0 0.0
2014-Dec-20 23:31N 51°15' E 004°22'0 0.0
2014-Dec-20 22:31N 51°15' E 004°22'0 0.0
2014-Dec-20 21:31N 51°15' E 004°22'0 0.0
2014-Dec-20 20:28N 51°15' E 004°22'0 0.0
2014-Dec-20 19:31N 51°15' E 004°22'0 0.0
2014-Dec-20 18:31N 51°15' E 004°22'0 0.0
2014-Dec-20 17:31N 51°15' E 004°22'0 0.0
2014-Dec-20 16:31N 51°15' E 004°22'0 0.0
2014-Dec-20 15:31N 51°15' E 004°22'0 0.0
2014-Dec-20 14:31N 51°15' E 004°22'0 0.0
2014-Dec-20 13:31N 51°15' E 004°22'0 0.0
2014-Dec-20 12:31N 51°15' E 004°22'1 0.6
2014-Dec-20 11:33N 51°15' E 004°21'4 4.4
2014-Dec-20 10:34N 51°19' E 004°19'2 1.6
2014-Dec-20 09:34N 51°21' E 004°17'0 0.0
2014-Dec-20 08:34N 51°21' E 004°17'5 4.9
2014-Dec-20 07:33N 51°24' E 004°11'8 8.2
2014-Dec-20 06:33N 51°24' E 003°58'9 9.3
2014-Dec-20 05:33N 51°23' E 003°43'7 7.3
2014-Dec-20 04:33N 51°25' E 003°32'1110.8
2014-Dec-20 03:33N 51°24' E 003°14'1312.4
2014-Dec-20 02:33N 51°25' E 002°54'9 8.1
2014-Dec-20 01:27N 51°25' E 002°40'0 0.1
2014-Dec-20 00:33N 51°25' E 002°40'0 0.0
2014-Dec-19 23:33N 51°25' E 002°40'0 0.0
2014-Dec-19 22:30N 51°25' E 002°40'0 0.1
2014-Dec-19 21:33N 51°25' E 002°40'0 0.1
2014-Dec-19 20:33N 51°25' E 002°40'0 0.1
2014-Dec-19 19:33N 51°25' E 002°40'0 0.1
2014-Dec-19 18:24N 51°25' E 002°40'0 0.0
2014-Dec-19 17:15N 51°25' E 002°40'0 0.1
2014-Dec-19 16:33N 51°25' E 002°40'0 0.1
2014-Dec-19 15:33N 51°25' E 002°40'0 0.1
2014-Dec-19 14:33N 51°25' E 002°40'0 0.2
2014-Dec-19 13:19N 51°25' E 002°41'2 2.7
2014-Dec-19 12:31N 51°23' E 002°39'8 8.2
2014-Dec-19 11:29N 51°21' E 002°27'1112.3
2014-Dec-19 10:33N 51°16' E 002°10'1110.9
2014-Dec-19 09:34N 51°11' E 001°55'1010.4
2014-Dec-19 08:34N 51°04' E 001°43'1010.4
2014-Dec-19 07:33N 50°57' E 001°31'  
2014-Dec-15 13:00N 45°30' W 025°24'28312.5 270 / 201034.5 5.4 14.011.211.2
2014-Dec-14 14:18N 43°30' W 031°23'  
2014-Dec-11 18:00N 35°42' W 047°12'   130 / 121024.010.8 0.522.017.223.0
Track history (hours):
 
Tides and Currents Weather Stations Pressure Air Temp Water Temp Dewpoint Dewpoint Depression Visibility Wind Speed Wind Dir Waves Ship Positions

British Robin

Last reported at 2014-Dec-21 01:31 UTC. Time now 2014-Dec-21 01:56 UTC.
Position N 51°15' E 004°22'.

Length 251.5 m; beam 43.9 m; draft 15 m.

Type: Tanker. MMSI: 232156000.

Date/timePositionNaut miles runAvg speedWind from/ knotsBaromVisibWave heightAir tempDewpointWater temp
2014-Dec-21 01:31N 51°15' E 004°22'0 0.0
2014-Dec-21 00:31N 51°15' E 004°22'0 0.0
2014-Dec-20 23:31N 51°15' E 004°22'0 0.0
2014-Dec-20 22:31N 51°15' E 004°22'0 0.0
2014-Dec-20 21:31N 51°15' E 004°22'0 0.0
2014-Dec-20 20:28N 51°15' E 004°22'0 0.0
2014-Dec-20 19:31N 51°15' E 004°22'0 0.0
2014-Dec-20 18:31N 51°15' E 004°22'0 0.0
2014-Dec-20 17:31N 51°15' E 004°22'0 0.0
2014-Dec-20 16:31N 51°15' E 004°22'0 0.0
2014-Dec-20 15:31N 51°15' E 004°22'0 0.0
2014-Dec-20 14:31N 51°15' E 004°22'0 0.0
2014-Dec-20 13:31N 51°15' E 004°22'0 0.0
2014-Dec-20 12:31N 51°15' E 004°22'1 0.6
2014-Dec-20 11:33N 51°15' E 004°21'4 4.4
2014-Dec-20 10:34N 51°19' E 004°19'2 1.6
2014-Dec-20 09:34N 51°21' E 004°17'0 0.0
2014-Dec-20 08:34N 51°21' E 004°17'5 4.9
2014-Dec-20 07:33N 51°24' E 004°11'8 8.2
2014-Dec-20 06:33N 51°24' E 003°58'9 9.3
2014-Dec-20 05:33N 51°23' E 003°43'7 7.3
2014-Dec-20 04:33N 51°25' E 003°32'1110.8
2014-Dec-20 03:33N 51°24' E 003°14'1312.4
2014-Dec-20 02:33N 51°25' E 002°54'9 8.1
2014-Dec-20 01:27N 51°25' E 002°40'0 0.1
2014-Dec-20 00:33N 51°25' E 002°40'0 0.0
2014-Dec-19 23:33N 51°25' E 002°40'0 0.0
2014-Dec-19 22:30N 51°25' E 002°40'0 0.1
2014-Dec-19 21:33N 51°25' E 002°40'0 0.1
2014-Dec-19 20:33N 51°25' E 002°40'0 0.1
2014-Dec-19 19:33N 51°25' E 002°40'0 0.1
2014-Dec-19 18:24N 51°25' E 002°40'0 0.0
2014-Dec-19 17:15N 51°25' E 002°40'0 0.1
2014-Dec-19 16:33N 51°25' E 002°40'0 0.1
2014-Dec-19 15:33N 51°25' E 002°40'0 0.1
2014-Dec-19 14:33N 51°25' E 002°40'0 0.2
2014-Dec-19 13:19N 51°25' E 002°41'2 2.7
2014-Dec-19 12:31N 51°23' E 002°39'8 8.2
2014-Dec-19 11:29N 51°21' E 002°27'1112.3
2014-Dec-19 10:33N 51°16' E 002°10'1110.9
2014-Dec-19 09:34N 51°11' E 001°55'1010.4
2014-Dec-19 08:34N 51°04' E 001°43'1010.4
2014-Dec-19 07:33N 50°57' E 001°31'  
2014-Dec-15 13:00N 45°30' W 025°24'28312.5 270 / 201034.5 5.4 14.011.211.2
2014-Dec-14 14:18N 43°30' W 031°23'  
2014-Dec-11 18:00N 35°42' W 047°12'   130 / 121024.010.8 0.522.017.223.0

Dump ship's entire track history